Time;durP1;ratioP1;P1;durP2;ratioP2;P2;SDS_P1;SDS_P2;PMS_P1;PMS_P2;Temp;Humidity;BMP_temperature;BMP_pressure;BME280_temperature;BME280_humidity;BME280_pressure;Samples;Min_cycle;Max_cycle;Signal;HPM_P1;HPM_P2
2021/07/04 00:00:43;;;;;;;14.60;11.07;;;16.20;99.90;;;;;;5056142;28;20516;-45
2021/07/04 00:03:09;;;;;;;13.98;10.75;;;16.10;99.90;;;;;;5069320;28;20021;-45
2021/07/04 00:05:37;;;;;;;11.70;10.48;;;16.10;99.90;;;;;;5057974;28;20083;-45
2021/07/04 00:08:06;;;;;;;12.70;11.15;;;16.00;99.90;;;;;;5041588;28;20025;-44
2021/07/04 00:10:34;;;;;;;11.40;10.18;;;15.90;99.90;;;;;;5060501;28;20547;-46
2021/07/04 00:13:00;;;;;;;11.93;10.38;;;15.90;99.90;;;;;;5056676;28;20033;-46
2021/07/04 00:15:29;;;;;;;13.77;10.88;;;15.90;99.90;;;;;;5049111;28;20502;-45
2021/07/04 00:17:55;;;;;;;11.35;10.18;;;15.80;99.90;;;;;;5050401;28;20111;-45
2021/07/04 00:20:22;;;;;;;15.38;10.98;;;15.80;99.90;;;;;;5047111;28;20120;-45
2021/07/04 00:22:51;;;;;;;14.63;11.93;;;15.80;99.90;;;;;;5038850;28;20033;-48
2021/07/04 00:25:17;;;;;;;11.77;10.50;;;15.80;99.90;;;;;;5050422;28;20037;-46
2021/07/04 00:27:43;;;;;;;12.07;10.50;;;15.70;99.90;;;;;;5047195;28;20371;-45
2021/07/04 00:30:11;;;;;;;12.38;10.07;;;15.70;99.90;;;;;;5049173;28;20079;-45
2021/07/04 00:32:37;;;;;;;12.88;11.45;;;15.60;99.90;;;;;;5032239;28;20490;-45
2021/07/04 00:35:04;;;;;;;11.07;9.95;;;15.60;99.90;;;;;;5046762;28;20021;-45
2021/07/04 00:37:30;;;;;;;12.27;10.90;;;15.60;99.90;;;;;;5035415;28;20029;-45
2021/07/04 00:39:56;;;;;;;12.68;10.85;;;15.60;99.90;;;;;;5048311;28;20027;-45
2021/07/04 00:42:21;;;;;;;16.40;11.48;;;15.60;99.90;;;;;;5044464;28;20025;-46
2021/07/04 00:44:47;;;;;;;24.25;19.95;;;15.60;99.90;;;;;;5029978;28;20036;-45
2021/07/04 00:47:12;;;;;;;18.88;15.20;;;15.60;99.90;;;;;;5029681;28;20053;-45
2021/07/04 00:49:38;;;;;;;18.88;13.95;;;15.50;99.90;;;;;;5028747;28;20159;-46
2021/07/04 00:52:04;;;;;;;17.73;13.35;;;15.40;99.90;;;;;;5044042;28;20057;-45
2021/07/04 00:54:29;;;;;;;15.90;13.63;;;15.40;99.90;;;;;;5062387;28;20056;-46
2021/07/04 00:56:55;;;;;;;20.55;13.88;;;15.40;99.90;;;;;;5057562;28;20432;-44
2021/07/04 00:59:20;;;;;;;15.77;13.05;;;15.30;99.90;;;;;;5047801;28;20048;-45
2021/07/04 01:01:47;;;;;;;17.75;12.27;;;15.30;99.90;;;;;;5054213;28;20036;-45
2021/07/04 01:04:13;;;;;;;12.80;11.20;;;15.30;99.90;;;;;;5049295;28;20486;-45
2021/07/04 01:06:42;;;;;;;11.77;10.57;;;15.40;99.90;;;;;;5043657;28;20032;-45
2021/07/04 01:09:08;;;;;;;14.50;12.18;;;15.40;99.90;;;;;;5044860;28;20060;-45
2021/07/04 01:11:34;;;;;;;18.73;12.82;;;15.40;99.90;;;;;;5047166;28;20045;-44
2021/07/04 01:14:00;;;;;;;16.85;12.75;;;15.40;99.90;;;;;;5049238;28;20029;-45
2021/07/04 01:16:26;;;;;;;12.25;10.80;;;15.30;99.90;;;;;;5045100;28;20124;-44
2021/07/04 01:18:53;;;;;;;23.25;11.77;;;15.20;99.90;;;;;;5053401;28;20462;-44
2021/07/04 01:21:20;;;;;;;13.15;11.05;;;15.10;99.90;;;;;;5048131;28;20021;-46
2021/07/04 01:23:46;;;;;;;13.32;11.07;;;15.10;99.90;;;;;;5045480;28;20037;-46
2021/07/04 01:26:11;;;;;;;12.43;11.02;;;15.00;99.90;;;;;;5064909;28;20043;-48
2021/07/04 01:28:37;;;;;;;13.20;10.90;;;15.00;99.90;;;;;;5049012;28;20029;-46
2021/07/04 01:31:03;;;;;;;14.32;11.57;;;15.00;99.90;;;;;;5048299;28;20112;-49
2021/07/04 01:33:28;;;;;;;14.77;11.38;;;15.00;99.90;;;;;;5047426;28;20115;-45
2021/07/04 01:35:54;;;;;;;12.35;11.05;;;14.90;99.90;;;;;;5037656;28;20049;-46
2021/07/04 01:38:20;;;;;;;15.23;11.00;;;14.90;99.90;;;;;;5042168;28;20032;-46
2021/07/04 01:40:47;;;;;;;13.95;11.85;;;14.90;99.90;;;;;;5050202;28;20025;-47
2021/07/04 01:43:12;;;;;;;19.50;14.43;;;14.80;99.90;;;;;;5041872;28;20087;-46
2021/07/04 01:45:39;;;;;;;14.60;11.98;;;14.80;99.90;;;;;;5046349;28;20038;-45
2021/07/04 01:48:05;;;;;;;15.40;12.18;;;14.80;99.90;;;;;;5046103;28;20061;-48
2021/07/04 01:50:36;;;;;;;19.58;11.93;;;14.80;99.90;;;;;;5046958;28;20055;-47
2021/07/04 01:53:02;;;;;;;18.23;12.48;;;14.80;99.90;;;;;;5047665;28;20505;-45
2021/07/04 01:55:28;;;;;;;15.95;12.05;;;14.70;99.90;;;;;;5047839;28;20021;-45
2021/07/04 01:57:53;;;;;;;13.43;11.75;;;14.70;99.90;;;;;;5040484;28;20095;-47
2021/07/04 02:00:46;;;;;;;14.85;11.02;;;14.70;99.90;;;;;;5040968;28;20012;-45
2021/07/04 02:03:12;;;;;;;13.43;12.02;;;14.60;99.90;;;;;;5048213;28;20470;-46
2021/07/04 02:05:38;;;;;;;17.35;11.43;;;14.60;99.90;;;;;;5048640;28;20471;-46
2021/07/04 02:08:05;;;;;;;17.55;11.85;;;14.60;99.90;;;;;;5042853;28;20117;-46
2021/07/04 02:10:35;;;;;;;12.68;10.68;;;14.60;99.90;;;;;;5047149;28;20083;-45
2021/07/04 02:13:03;;;;;;;12.25;10.95;;;14.60;99.90;;;;;;5047265;28;20025;-45
2021/07/04 02:15:31;;;;;;;13.38;10.68;;;14.60;99.90;;;;;;5056773;28;20028;-46
2021/07/04 02:18:01;;;;;;;12.40;10.18;;;14.60;99.90;;;;;;5047155;28;20501;-45
2021/07/04 02:20:32;;;;;;;13.82;10.77;;;14.60;99.90;;;;;;5042487;28;20044;-48
2021/07/04 02:23:01;;;;;;;13.43;11.00;;;14.60;99.90;;;;;;5043861;28;20040;-45
2021/07/04 02:25:28;;;;;;;14.75;11.30;;;14.60;99.90;;;;;;5039826;28;20037;-46
2021/07/04 02:27:54;;;;;;;13.88;11.07;;;14.60;99.90;;;;;;5037497;28;20028;-46
2021/07/04 02:30:21;;;;;;;13.93;11.90;;;14.60;99.90;;;;;;5035028;28;20136;-44
2021/07/04 02:32:47;;;;;;;16.35;11.65;;;14.60;99.90;;;;;;5035273;28;20018;-46
2021/07/04 02:35:12;;;;;;;17.10;11.60;;;14.60;99.90;;;;;;5041771;28;20021;-47
2021/07/04 02:37:38;;;;;;;13.57;12.05;;;14.60;99.90;;;;;;5032635;28;20017;-46
2021/07/04 02:40:04;;;;;;;16.63;13.05;;;14.50;99.90;;;;;;5038089;28;20075;-45
2021/07/04 02:42:31;;;;;;;13.85;11.82;;;14.50;99.90;;;;;;5039064;28;20028;-45
2021/07/04 02:44:58;;;;;;;15.00;13.32;;;14.40;99.90;;;;;;5036807;28;20555;-46
2021/07/04 02:47:25;;;;;;;16.20;12.50;;;14.40;99.90;;;;;;5038160;28;20056;-46
2021/07/04 02:49:51;;;;;;;14.05;12.27;;;14.30;99.90;;;;;;5038500;28;20091;-45
2021/07/04 02:52:16;;;;;;;15.68;12.18;;;14.30;99.90;;;;;;5039672;28;20045;-47
2021/07/04 02:54:42;;;;;;;12.90;11.50;;;14.20;99.90;;;;;;5036967;28;20074;-46
2021/07/04 02:57:07;;;;;;;14.43;11.63;;;14.20;99.90;;;;;;5040082;28;20491;-47
2021/07/04 02:59:33;;;;;;;13.23;11.82;;;14.20;99.90;;;;;;5031925;28;20029;-46
2021/07/04 03:01:59;;;;;;;13.55;11.98;;;14.10;99.90;;;;;;5036639;28;20029;-46
2021/07/04 03:04:24;;;;;;;15.20;11.10;;;14.20;99.90;;;;;;5038721;28;20024;-46
2021/07/04 03:06:50;;;;;;;14.68;11.63;;;14.10;99.90;;;;;;5036245;28;20037;-46
2021/07/04 03:09:16;;;;;;;13.82;11.85;;;14.10;99.90;;;;;;5040674;28;20139;-45
2021/07/04 03:11:41;;;;;;;14.90;11.55;;;14.10;99.90;;;;;;5035588;28;20037;-45
2021/07/04 03:14:07;;;;;;;14.90;12.45;;;14.10;99.90;;;;;;5042088;28;20029;-45
2021/07/04 03:16:32;;;;;;;15.77;12.75;;;14.10;99.90;;;;;;5033933;28;20429;-48
2021/07/04 03:18:58;;;;;;;13.48;11.88;;;14.10;99.90;;;;;;5034966;28;20024;-45
2021/07/04 03:21:23;;;;;;;14.45;11.20;;;14.10;99.90;;;;;;5046982;28;20055;-45
2021/07/04 03:23:49;;;;;;;14.35;11.50;;;14.10;99.90;;;;;;5050716;28;20029;-45
2021/07/04 03:26:14;;;;;;;16.92;12.27;;;14.10;99.90;;;;;;5043078;28;20101;-45
2021/07/04 03:28:40;;;;;;;17.90;12.60;;;14.10;99.90;;;;;;5048599;28;20029;-47
2021/07/04 03:31:05;;;;;;;13.10;11.68;;;14.00;99.90;;;;;;5056085;28;20075;-45
2021/07/04 03:33:31;;;;;;;13.43;11.77;;;14.00;99.90;;;;;;5051353;28;20029;-46
2021/07/04 03:35:57;;;;;;;16.80;12.45;;;14.00;99.90;;;;;;5049948;28;20028;-45
2021/07/04 03:38:22;;;;;;;12.88;11.57;;;14.00;99.90;;;;;;5032763;28;20088;-46
2021/07/04 03:40:48;;;;;;;13.27;11.82;;;14.10;99.90;;;;;;5030785;28;20028;-47
2021/07/04 03:43:13;;;;;;;14.77;12.73;;;14.10;99.90;;;;;;5031034;28;20079;-46
2021/07/04 03:45:38;;;;;;;13.68;12.07;;;14.10;99.90;;;;;;5045140;28;20029;-47
2021/07/04 03:48:05;;;;;;;14.57;12.15;;;14.10;99.90;;;;;;5050304;28;20029;-46
2021/07/04 03:50:30;;;;;;;13.93;11.85;;;14.10;99.90;;;;;;5038751;28;20245;-48
2021/07/04 03:52:56;;;;;;;12.88;11.30;;;14.10;99.90;;;;;;5045099;28;20069;-47
2021/07/04 03:55:22;;;;;;;13.57;11.98;;;14.10;99.90;;;;;;5048870;28;20086;-46
2021/07/04 03:57:48;;;;;;;13.13;11.63;;;14.20;99.90;;;;;;5046371;28;20131;-47
2021/07/04 04:00:14;;;;;;;14.85;12.45;;;14.20;99.90;;;;;;5050417;28;20127;-47
2021/07/04 04:02:41;;;;;;;12.88;11.57;;;14.20;99.90;;;;;;5046465;28;20448;-46
2021/07/04 04:05:07;;;;;;;13.68;12.30;;;14.30;99.90;;;;;;5056500;28;20755;-46
2021/07/04 04:07:33;;;;;;;14.70;12.25;;;14.30;99.90;;;;;;5044378;28;20036;-46
2021/07/04 04:09:59;;;;;;;15.40;13.60;;;14.30;99.90;;;;;;5048542;28;20036;-46
2021/07/04 04:12:24;;;;;;;14.10;12.68;;;14.40;99.90;;;;;;5042519;28;20028;-47
2021/07/04 04:14:50;;;;;;;15.43;13.00;;;14.50;99.90;;;;;;5050400;28;20074;-47
2021/07/04 04:17:16;;;;;;;13.80;12.05;;;14.50;99.90;;;;;;5045767;28;20391;-47
2021/07/04 04:19:42;;;;;;;15.15;13.35;;;14.50;99.90;;;;;;5043660;28;20317;-46
2021/07/04 04:22:08;;;;;;;15.27;13.63;;;14.60;99.90;;;;;;5046716;28;20025;-48
2021/07/04 04:24:33;;;;;;;16.58;13.82;;;14.60;99.90;;;;;;5050235;28;20040;-46
2021/07/04 04:26:59;;;;;;;16.50;13.65;;;14.70;99.90;;;;;;5050328;28;20102;-47
2021/07/04 04:29:24;;;;;;;16.55;14.38;;;14.80;99.90;;;;;;5045099;28;20109;-46
2021/07/04 04:31:50;;;;;;;14.43;12.95;;;14.80;99.90;;;;;;5038629;28;20032;-47
2021/07/04 04:34:16;;;;;;;14.52;12.38;;;14.90;99.90;;;;;;5055374;28;20028;-47
2021/07/04 04:36:42;;;;;;;14.10;12.05;;;14.90;99.90;;;;;;5035507;28;20040;-47
2021/07/04 04:39:07;;;;;;;13.45;11.88;;;15.00;99.90;;;;;;5047568;28;20021;-46
2021/07/04 04:41:35;;;;;;;14.77;12.48;;;15.00;99.90;;;;;;5041381;28;20083;-47
2021/07/04 04:44:01;;;;;;;15.45;12.35;;;15.10;99.90;;;;;;5049897;28;20108;-47
2021/07/04 04:46:27;;;;;;;16.80;12.75;;;15.20;99.90;;;;;;5048584;28;20033;-48
2021/07/04 04:48:52;;;;;;;16.25;12.70;;;15.20;99.90;;;;;;5049443;28;20402;-46
2021/07/04 04:51:18;;;;;;;13.07;11.65;;;15.20;99.90;;;;;;5043756;28;20029;-46
2021/07/04 04:53:43;;;;;;;13.23;11.27;;;15.30;99.90;;;;;;5050032;28;20023;-46
2021/07/04 04:56:09;;;;;;;13.93;12.18;;;15.40;99.90;;;;;;5041284;28;20056;-46
2021/07/04 04:58:34;;;;;;;17.35;12.60;;;15.50;99.90;;;;;;5049848;28;20029;-46
2021/07/04 05:01:00;;;;;;;12.30;11.00;;;15.50;99.90;;;;;;5033253;28;20491;-47
2021/07/04 05:03:25;;;;;;;15.63;11.98;;;15.60;99.90;;;;;;5040212;28;20124;-47
2021/07/04 05:05:51;;;;;;;13.63;11.80;;;15.70;99.90;;;;;;5065622;28;20040;-47
2021/07/04 05:08:16;;;;;;;14.30;11.65;;;15.70;99.90;;;;;;5044840;28;20048;-47
2021/07/04 05:10:42;;;;;;;12.98;10.60;;;15.80;99.90;;;;;;5045796;28;20051;-47
2021/07/04 05:13:07;;;;;;;13.77;12.20;;;15.80;99.90;;;;;;5047611;28;20028;-46
2021/07/04 05:15:33;;;;;;;15.68;13.05;;;15.90;99.90;;;;;;5041004;28;20091;-47
2021/07/04 05:18:02;;;;;;;13.80;11.90;;;16.10;99.90;;;;;;5028693;28;20036;-47
2021/07/04 05:20:28;;;;;;;13.60;12.25;;;16.10;99.90;;;;;;5033047;28;20028;-48
2021/07/04 05:22:53;;;;;;;17.65;12.55;;;16.20;99.90;;;;;;5046312;28;20547;-48
2021/07/04 05:25:19;;;;;;;15.05;13.15;;;16.30;99.90;;;;;;5048802;28;20029;-47
2021/07/04 05:27:44;;;;;;;15.13;12.85;;;16.40;99.90;;;;;;5043170;28;20043;-47
2021/07/04 05:30:10;;;;;;;19.00;13.15;;;16.50;99.90;;;;;;5048211;28;20056;-47
2021/07/04 05:32:36;;;;;;;17.08;13.68;;;16.60;99.90;;;;;;5042801;28;20052;-47
2021/07/04 05:35:01;;;;;;;14.02;12.07;;;16.70;99.90;;;;;;5051716;28;20355;-47
2021/07/04 05:37:27;;;;;;;13.68;11.63;;;16.80;99.90;;;;;;5040775;28;20041;-47
2021/07/04 05:39:52;;;;;;;13.30;11.90;;;16.90;99.90;;;;;;5048592;28;20021;-48
2021/07/04 05:42:18;;;;;;;12.80;11.32;;;17.10;99.90;;;;;;5039007;28;20021;-47
2021/07/04 05:44:43;;;;;;;13.05;11.75;;;17.20;99.90;;;;;;5048619;28;20036;-47
2021/07/04 05:47:09;;;;;;;11.80;10.57;;;17.30;99.90;;;;;;5046827;28;20024;-47
2021/07/04 05:49:36;;;;;;;11.15;10.05;;;17.40;99.90;;;;;;5047021;28;20115;-47
2021/07/04 05:52:02;;;;;;;14.40;10.82;;;17.50;99.90;;;;;;5044012;28;20074;-47
2021/07/04 05:54:28;;;;;;;12.18;10.60;;;17.60;99.90;;;;;;5047913;28;20028;-48
2021/07/04 05:56:53;;;;;;;13.68;10.23;;;17.80;99.90;;;;;;5047334;28;20033;-47
2021/07/04 05:59:19;;;;;;;11.45;10.00;;;17.80;99.90;;;;;;5040812;28;20029;-45
2021/07/04 06:01:44;;;;;;;14.13;11.40;;;18.00;99.90;;;;;;5034641;28;20402;-46
2021/07/04 06:04:10;;;;;;;13.85;11.48;;;18.10;99.90;;;;;;5039796;28;20033;-46
2021/07/04 06:06:35;;;;;;;10.05;9.05;;;18.10;99.90;;;;;;5031347;28;20075;-46
2021/07/04 06:09:01;;;;;;;13.43;9.93;;;18.20;99.90;;;;;;5032217;28;20029;-46
2021/07/04 06:11:28;;;;;;;11.02;9.93;;;18.30;99.90;;;;;;5037534;28;20032;-46
2021/07/04 06:13:53;;;;;;;11.55;10.07;;;18.50;99.90;;;;;;5047835;28;20028;-48
2021/07/04 06:16:19;;;;;;;10.18;9.13;;;18.50;99.90;;;;;;5044567;28;20037;-46
2021/07/04 06:18:44;;;;;;;11.07;10.02;;;18.70;99.90;;;;;;5042646;28;20017;-46
2021/07/04 06:21:10;;;;;;;11.45;10.18;;;18.80;99.90;;;;;;5037679;28;20025;-48
2021/07/04 06:23:35;;;;;;;11.27;9.23;;;18.90;99.90;;;;;;5041973;28;20025;-48
2021/07/04 06:26:01;;;;;;;10.38;8.90;;;19.10;99.90;;;;;;5034893;28;20041;-47
2021/07/04 06:28:26;;;;;;;10.82;9.73;;;19.20;99.90;;;;;;5040891;28;20494;-48
2021/07/04 06:30:52;;;;;;;11.30;8.85;;;19.30;99.90;;;;;;5033658;28;20043;-47
2021/07/04 06:33:17;;;;;;;12.25;9.00;;;19.50;99.90;;;;;;5038534;28;20025;-47
2021/07/04 06:35:43;;;;;;;10.00;9.00;;;19.60;99.90;;;;;;5036307;28;20053;-48
2021/07/04 06:38:08;;;;;;;10.23;8.10;;;19.70;99.90;;;;;;5040758;28;20025;-49
2021/07/04 06:40:34;;;;;;;8.82;7.82;;;19.70;99.90;;;;;;5037083;28;20673;-49
2021/07/04 06:42:59;;;;;;;10.85;9.10;;;19.80;99.90;;;;;;5038523;28;20053;-49
2021/07/04 06:45:25;;;;;;;10.10;8.55;;;19.80;99.90;;;;;;5043824;28;20032;-47
2021/07/04 06:47:50;;;;;;;10.80;8.95;;;19.90;99.90;;;;;;5052657;28;20029;-50
2021/07/04 06:50:18;;;;;;;9.55;8.27;;;19.90;99.90;;;;;;5039706;28;20061;-48
2021/07/04 06:52:45;;;;;;;10.13;8.80;;;20.00;99.90;;;;;;5036724;28;20037;-46
2021/07/04 06:55:11;;;;;;;12.50;9.20;;;20.00;99.90;;;;;;5034938;28;20071;-47
2021/07/04 06:57:36;;;;;;;10.93;9.32;;;20.00;99.90;;;;;;5033278;28;20099;-46
2021/07/04 07:00:10;;;;;;;9.98;8.45;;;20.10;99.90;;;;;;5034912;28;20475;-47
2021/07/04 07:02:36;;;;;;;10.20;8.70;;;20.20;99.90;;;;;;5031587;28;20044;-48
2021/07/04 07:05:04;;;;;;;9.57;8.57;;;20.30;99.90;;;;;;5033976;28;20038;-47
2021/07/04 07:07:29;;;;;;;10.40;8.90;;;20.40;99.90;;;;;;5031053;28;20087;-50
2021/07/04 07:09:55;;;;;;;13.75;8.52;;;20.60;99.90;;;;;;5029749;28;20534;-47
2021/07/04 07:12:20;;;;;;;9.27;8.38;;;20.70;99.90;;;;;;5040841;28;20028;-48
2021/07/04 07:14:46;;;;;;;9.18;7.40;;;20.90;99.90;;;;;;5061669;28;20448;-48
2021/07/04 07:17:12;;;;;;;9.68;7.43;;;20.90;99.90;;;;;;5049601;28;20026;-47
2021/07/04 07:19:37;;;;;;;9.25;7.95;;;21.10;99.90;;;;;;5050143;28;20092;-48
2021/07/04 07:22:03;;;;;;;8.68;7.10;;;21.20;99.90;;;;;;5037325;28;20025;-49
2021/07/04 07:24:29;;;;;;;8.80;7.90;;;21.40;99.90;;;;;;5046037;28;20063;-47
2021/07/04 07:26:54;;;;;;;8.70;7.15;;;21.60;99.90;;;;;;5043873;28;20037;-48
2021/07/04 07:29:20;;;;;;;10.07;7.25;;;21.70;99.90;;;;;;5042991;28;20064;-47
2021/07/04 07:31:46;;;;;;;10.15;7.53;;;22.00;99.90;;;;;;5047597;28;20108;-48
2021/07/04 07:34:11;;;;;;;8.07;7.28;;;22.10;99.90;;;;;;5037015;28;20447;-50
2021/07/04 07:36:37;;;;;;;9.85;6.70;;;22.30;99.90;;;;;;5031783;28;20495;-48
2021/07/04 07:39:03;;;;;;;10.55;6.82;;;22.30;99.90;;;;;;5036146;28;20029;-48
2021/07/04 07:41:29;;;;;;;10.40;6.35;;;22.40;99.90;;;;;;5029721;28;20495;-48
2021/07/04 07:43:55;;;;;;;12.02;6.53;;;22.50;99.90;;;;;;5046521;28;20032;-48
2021/07/04 07:46:20;;;;;;;7.60;6.50;;;22.60;99.90;;;;;;5062899;28;20386;-48
2021/07/04 07:48:47;;;;;;;8.98;5.78;;;22.70;99.90;;;;;;5063729;28;20448;-47
2021/07/04 07:51:14;;;;;;;7.80;6.38;;;22.80;99.90;;;;;;5040987;28;20025;-50
2021/07/04 07:53:40;;;;;;;8.70;6.30;;;23.00;99.90;;;;;;5049861;28;20102;-48
2021/07/04 07:56:05;;;;;;;12.18;6.18;;;23.20;99.40;;;;;;5043564;28;20602;-48
2021/07/04 07:58:31;;;;;;;6.05;5.45;;;23.30;99.40;;;;;;5038155;28;20100;-48
2021/07/04 08:00:56;;;;;;;6.68;6.00;;;23.50;99.20;;;;;;5058304;28;20047;-48
2021/07/04 08:03:21;;;;;;;6.78;5.90;;;23.60;98.40;;;;;;5070643;28;20070;-47
2021/07/04 08:05:47;;;;;;;6.88;6.18;;;23.70;98.00;;;;;;5056534;28;20075;-48
2021/07/04 08:08:12;;;;;;;6.97;6.35;;;24.00;99.10;;;;;;5050099;28;20029;-49
2021/07/04 08:10:38;;;;;;;6.88;6.18;;;24.20;96.70;;;;;;5043914;28;20112;-48
2021/07/04 08:13:04;;;;;;;6.43;5.68;;;24.50;96.30;;;;;;5046981;28;20051;-49
2021/07/04 08:15:30;;;;;;;7.00;5.70;;;25.00;94.20;;;;;;5052072;28;20016;-47
2021/07/04 08:17:56;;;;;;;7.88;5.25;;;25.30;92.60;;;;;;5041923;28;20599;-46
2021/07/04 08:20:22;;;;;;;7.18;5.07;;;26.30;90.90;;;;;;5032823;28;20079;-47
2021/07/04 08:22:47;;;;;;;6.65;4.30;;;27.50;81.40;;;;;;5058090;28;20379;-45
2021/07/04 08:25:14;;;;;;;6.78;5.22;;;28.60;75.70;;;;;;5069182;28;20085;-45
2021/07/04 08:27:40;;;;;;;4.60;4.20;;;29.60;70.50;;;;;;5049959;28;20029;-45
2021/07/04 08:30:08;;;;;;;7.00;4.60;;;30.80;62.30;;;;;;5048940;28;20036;-45
2021/07/04 08:32:34;;;;;;;5.30;4.10;;;30.80;58.60;;;;;;5048172;28;20509;-45
2021/07/04 08:34:59;;;;;;;5.72;3.97;;;31.70;56.60;;;;;;5049370;28;20029;-44
2021/07/04 08:37:25;;;;;;;4.07;3.78;;;32.70;54.50;;;;;;5042730;28;20017;-45
2021/07/04 08:39:50;;;;;;;4.57;3.85;;;32.20;55.40;;;;;;5044931;28;20256;-48
2021/07/04 08:42:18;;;;;;;3.92;3.55;;;32.60;55.70;;;;;;5043051;28;20120;-46
2021/07/04 08:44:52;;;;;;;4.28;3.90;;;32.80;53.30;;;;;;5048580;28;20025;-48
2021/07/04 08:47:19;;;;;;;4.35;3.95;;;33.40;54.50;;;;;;5055985;28;20069;-46
2021/07/04 08:49:46;;;;;;;5.57;3.83;;;34.00;52.20;;;;;;5048192;28;20040;-48
2021/07/04 08:52:12;;;;;;;4.50;4.10;;;34.70;50.80;;;;;;5049664;28;20525;-49
2021/07/04 08:54:37;;;;;;;5.97;4.13;;;35.00;49.10;;;;;;5043951;28;20041;-47
2021/07/04 08:57:08;;;;;;;4.35;3.78;;;33.80;46.40;;;;;;5046042;28;20027;-47
2021/07/04 08:59:35;;;;;;;4.40;3.80;;;34.20;46.40;;;;;;5047562;28;20025;-47
2021/07/04 09:02:01;;;;;;;3.92;3.63;;;34.90;47.20;;;;;;5045538;28;20100;-47
2021/07/04 09:04:26;;;;;;;4.05;3.65;;;35.00;46.30;;;;;;5041798;28;20044;-48
2021/07/04 09:06:53;;;;;;;5.07;4.28;;;35.50;45.10;;;;;;5047640;28;20102;-47
2021/07/04 09:09:24;;;;;;;4.10;3.78;;;36.90;41.80;;;;;;5048642;28;20058;-46
2021/07/04 09:11:59;;;;;;;3.88;3.58;;;36.70;43.00;;;;;;5040166;28;20098;-47
2021/07/04 09:14:39;;;;;;;5.82;3.80;;;36.60;43.80;;;;;;5035386;28;20016;-49
2021/07/04 09:17:10;;;;;;;6.30;4.53;;;35.50;43.70;;;;;;5037116;28;20105;-46
2021/07/04 09:19:40;;;;;;;6.13;4.15;;;36.30;45.10;;;;;;5049907;28;20032;-45
2021/07/04 09:22:10;;;;;;;3.90;3.60;;;37.20;44.60;;;;;;5052543;28;20021;-47
2021/07/04 09:24:44;;;;;;;6.30;3.80;;;37.20;44.50;;;;;;5044744;28;20545;-46
2021/07/04 09:27:14;;;;;;;4.68;4.07;;;37.20;43.40;;;;;;5046336;28;20390;-47
2021/07/04 09:29:52;;;;;;;4.45;3.90;;;36.50;42.30;;;;;;5041204;28;20037;-47
2021/07/04 09:32:26;;;;;;;3.93;3.57;;;35.80;44.00;;;;;;5048895;28;20025;-48
2021/07/04 09:34:59;;;;;;;4.30;3.90;;;36.30;45.20;;;;;;5049409;28;20033;-49
2021/07/04 09:37:32;;;;;;;5.30;4.20;;;36.50;45.20;;;;;;5037362;28;20024;-47
2021/07/04 09:40:08;;;;;;;5.10;3.80;;;36.50;44.50;;;;;;5048170;28;20027;-48
2021/07/04 09:42:34;;;;;;;4.13;3.72;;;37.50;45.80;;;;;;5043663;28;20425;-47
2021/07/04 09:44:59;;;;;;;4.90;3.50;;;37.50;46.90;;;;;;5043449;28;20029;-49
2021/07/04 09:47:25;;;;;;;4.15;3.13;;;37.60;44.30;;;;;;5045961;28;20102;-48
2021/07/04 09:50:02;;;;;;;4.00;3.55;;;39.10;39.50;;;;;;5043872;28;20025;-48
2021/07/04 09:52:28;;;;;;;4.13;3.72;;;38.70;39.20;;;;;;5040035;28;20032;-47
2021/07/04 09:55:03;;;;;;;3.83;3.47;;;39.00;39.90;;;;;;5047080;28;20029;-49
2021/07/04 09:58:07;;;;;;;4.97;3.83;;;38.70;39.70;;;;;;5029415;28;20108;-49
2021/07/04 10:00:37;;;;;;;4.13;3.72;;;38.30;41.50;;;;;;5033077;28;20031;-48
2021/07/04 10:03:09;;;;;;;3.97;3.60;;;38.50;40.30;;;;;;5059456;28;20043;-48
2021/07/04 10:05:36;;;;;;;3.90;3.47;;;38.10;41.50;;;;;;5048468;28;20147;-50
2021/07/04 10:08:33;;;;;;;4.88;3.85;;;37.90;41.00;;;;;;5045387;28;20040;-48
2021/07/04 10:11:05;;;;;;;4.30;3.80;;;36.30;41.00;;;;;;5044505;28;20035;-48
2021/07/04 10:13:31;;;;;;;6.22;4.13;;;35.40;43.40;;;;;;5034658;28;20013;-47
2021/07/04 10:15:58;;;;;;;3.90;3.50;;;34.80;47.00;;;;;;5040224;28;20210;-47
2021/07/04 10:18:24;;;;;;;5.88;3.90;;;35.80;43.80;;;;;;5049395;28;20489;-48
2021/07/04 10:20:51;;;;;;;4.57;4.13;;;36.20;42.20;;;;;;5041605;28;20480;-47
2021/07/04 10:23:25;;;;;;;3.70;3.40;;;36.20;42.50;;;;;;5047586;28;20041;-47
2021/07/04 10:25:52;;;;;;;3.75;3.45;;;35.10;44.40;;;;;;5041932;28;20055;-46
2021/07/04 10:28:24;;;;;;;4.97;4.07;;;34.80;45.00;;;;;;5046054;28;20112;-50
2021/07/04 10:30:51;;;;;;;4.35;3.90;;;35.20;44.00;;;;;;5046951;28;20128;-49
2021/07/04 10:33:34;;;;;;;5.35;4.22;;;36.40;42.40;;;;;;5040371;28;20032;-49
2021/07/04 10:36:08;;;;;;;3.85;3.50;;;37.20;41.90;;;;;;5039808;28;20022;-47
2021/07/04 10:39:05;;;;;;;5.07;3.60;;;36.90;42.60;;;;;;5047490;28;20025;-50
2021/07/04 10:41:34;;;;;;;3.80;3.38;;;37.70;41.20;;;;;;5046890;28;20111;-46
2021/07/04 10:44:08;;;;;;;4.45;3.80;;;39.30;39.10;;;;;;5031579;28;20471;-47
2021/07/04 10:46:41;;;;;;;3.58;3.28;;;39.90;37.30;;;;;;5046387;28;20028;-47
2021/07/04 10:49:14;;;;;;;4.53;3.72;;;40.30;39.10;;;;;;5043354;28;20026;-50
2021/07/04 10:51:58;;;;;;;3.78;3.47;;;40.90;36.20;;;;;;5048006;28;20029;-48
2021/07/04 10:54:39;;;;;;;3.38;3.08;;;40.80;35.60;;;;;;5043627;28;20361;-49
2021/07/04 10:57:06;;;;;;;5.55;3.88;;;38.90;36.50;;;;;;5043827;28;20072;-46
2021/07/04 10:59:31;;;;;;;4.43;3.78;;;35.90;37.70;;;;;;5045032;28;20252;-48
2021/07/04 11:01:59;;;;;;;6.10;4.07;;;34.30;40.80;;;;;;5047060;28;20466;-47
2021/07/04 11:04:28;;;;;;;4.05;3.65;;;34.20;41.60;;;;;;5046800;28;20108;-48
2021/07/04 11:06:54;;;;;;;5.27;3.63;;;33.80;44.60;;;;;;5040884;28;20113;-47
2021/07/04 11:09:20;;;;;;;6.35;4.00;;;33.60;45.00;;;;;;5046240;28;20052;-47
2021/07/04 11:11:45;;;;;;;7.10;4.13;;;33.50;44.20;;;;;;5045854;28;20461;-48
2021/07/04 11:14:11;;;;;;;4.00;3.70;;;33.60;44.30;;;;;;5041261;28;20385;-47
2021/07/04 11:16:37;;;;;;;4.50;4.00;;;33.70;45.70;;;;;;5046395;28;20021;-48
2021/07/04 11:19:08;;;;;;;4.15;3.75;;;34.60;44.50;;;;;;5049588;28;20036;-48
2021/07/04 11:21:49;;;;;;;4.30;3.90;;;35.00;43.50;;;;;;5042908;28;20424;-49
2021/07/04 11:24:16;;;;;;;4.38;3.97;;;35.70;43.80;;;;;;5048017;28;20516;-47
2021/07/04 11:26:43;;;;;;;5.57;3.67;;;36.20;43.60;;;;;;5046471;28;20028;-48
2021/07/04 11:29:12;;;;;;;3.20;2.95;;;37.10;40.70;;;;;;5041221;28;20513;-49
2021/07/04 11:31:39;;;;;;;4.53;3.83;;;37.40;40.10;;;;;;5049689;28;20033;-47
2021/07/04 11:34:06;;;;;;;3.72;3.42;;;37.50;40.50;;;;;;5051534;28;20052;-47
2021/07/04 11:36:32;;;;;;;3.83;3.45;;;37.60;41.30;;;;;;5044169;28;20045;-46
2021/07/04 11:39:10;;;;;;;4.03;3.65;;;38.40;40.80;;;;;;5051171;28;20056;-47
2021/07/04 11:41:47;;;;;;;7.15;3.60;;;38.30;42.80;;;;;;5051264;28;20029;-47
2021/07/04 11:44:15;;;;;;;4.10;3.70;;;38.10;40.50;;;;;;5045453;28;20032;-47
2021/07/04 11:46:44;;;;;;;4.15;3.80;;;37.70;39.40;;;;;;5049990;28;20135;-46
2021/07/04 11:49:14;;;;;;;4.82;3.70;;;36.70;40.00;;;;;;5043845;28;20040;-46
2021/07/04 11:51:42;;;;;;;3.80;3.40;;;36.10;39.80;;;;;;5044267;28;20662;-48
2021/07/04 11:54:20;;;;;;;6.22;3.97;;;35.30;41.40;;;;;;5053666;28;20563;-48
2021/07/04 11:56:54;;;;;;;4.25;3.85;;;33.80;42.60;;;;;;5041503;28;20033;-46
2021/07/04 11:59:26;;;;;;;5.18;3.85;;;33.30;42.80;;;;;;5041468;28;20359;-47
2021/07/04 12:01:56;;;;;;;5.32;3.45;;;33.70;44.30;;;;;;5046165;28;20033;-48
2021/07/04 12:04:37;;;;;;;5.50;4.20;;;34.60;42.80;;;;;;5030942;28;20077;-46
2021/07/04 12:07:07;;;;;;;4.57;3.88;;;35.20;42.90;;;;;;5045887;28;20449;-47
2021/07/04 12:09:38;;;;;;;4.57;4.18;;;35.20;42.40;;;;;;5047989;28;20080;-46
2021/07/04 12:12:06;;;;;;;6.43;4.13;;;35.00;42.60;;;;;;5043584;28;20033;-45
2021/07/04 12:14:36;;;;;;;3.95;3.65;;;34.60;42.40;;;;;;5046700;28;20037;-46
2021/07/04 12:17:22;;;;;;;4.78;4.15;;;34.00;43.00;;;;;;5054982;28;20024;-46
2021/07/04 12:19:55;;;;;;;4.28;3.88;;;33.40;43.00;;;;;;5039228;28;20037;-46
2021/07/04 12:22:23;;;;;;;4.97;4.15;;;32.60;44.10;;;;;;5042792;28;20021;-47
2021/07/04 12:24:49;;;;;;;4.75;4.32;;;33.20;46.10;;;;;;5048051;28;20108;-46
2021/07/04 12:27:15;;;;;;;5.40;4.45;;;33.10;48.60;;;;;;5050273;28;20029;-45
2021/07/04 12:30:05;;;;;;;9.45;4.60;;;33.40;44.60;;;;;;5039776;28;20102;-46
2021/07/04 12:32:35;;;;;;;4.20;3.80;;;33.30;44.60;;;;;;5047274;28;20037;-46
2021/07/04 12:35:01;;;;;;;6.30;4.65;;;33.30;46.60;;;;;;5051244;28;20037;-46
2021/07/04 12:37:28;;;;;;;6.45;4.32;;;33.60;45.40;;;;;;5043216;28;20059;-48